Terminal Aerodrome Forecast
Issued by NWS Twin Cities, MN

Home | Current Version | Previous Version | Text Only | Print | Product List | Glossary On
Versions: 1 2 3 4 5 6 7 8 9 10 11 12 13 14 15 16 17 18 19 20 21 22 23 24 25 26
000
FTUS43 KMPX 212000 AAA
TAFEAU
TAF AMD
KEAU 212050Z 2121/2218 12010KT P6SM SCT020 BKN040
      TEMPO 2122/2202 4SM -RA BR
     FM220400 13004KT 4SM BR SCT003
     FM220800 11004KT 1/4SM FG VV001
     FM221400 06003KT 2SM BR OVC003
     FM221600 03005KT 4SM BR OVC006=

USA.gov is the U.S. government's official web portal to all federal, state and local government web resources and services.